Time;durP1;ratioP1;P1;durP2;ratioP2;P2;SDS_P1;SDS_P2;PMS_P1;PMS_P2;Temp;Humidity;BMP_temperature;BMP_pressure;BME280_temperature;BME280_humidity;BME280_pressure;Samples;Min_cycle;Max_cycle;Signal;HPM_P1;HPM_P2
2022/08/20 00:00:13;;;;;;;11.77;6.03;;;;;;;19.16;96.71;100160.13;5034168;28;20037;-76
2022/08/20 00:03:01;;;;;;;13.18;7.00;;;;;;;18.88;99.36;100152.56;5034748;28;20038;-75
2022/08/20 00:05:33;;;;;;;15.95;7.05;;;;;;;18.85;100.00;100164.38;5034347;28;20029;-76
2022/08/20 00:07:59;;;;;;;15.57;7.50;;;;;;;18.75;100.00;100158.81;5034488;28;20035;-75
2022/08/20 00:10:26;;;;;;;17.23;8.52;;;;;;;18.76;100.00;100163.16;5034297;28;20034;-75
2022/08/20 00:12:52;;;;;;;17.52;7.72;;;;;;;18.83;100.00;100150.19;5034667;28;20025;-75
2022/08/20 00:15:21;;;;;;;16.67;7.40;;;;;;;18.80;100.00;100150.94;5034294;28;20037;-75
2022/08/20 00:17:51;;;;;;;22.20;8.15;;;;;;;18.77;100.00;100156.44;5033996;28;20461;-75
2022/08/20 00:20:19;;;;;;;16.42;7.97;;;;;;;18.82;100.00;100148.59;5034459;28;20033;-76
2022/08/20 00:22:44;;;;;;;19.50;7.65;;;;;;;18.90;100.00;100150.19;5034021;28;20041;-76
2022/08/20 00:25:11;;;;;;;14.38;7.43;;;;;;;18.79;100.00;100154.09;5034567;28;20543;-76
2022/08/20 00:27:36;;;;;;;15.95;7.88;;;;;;;18.74;100.00;100151.72;5016362;28;20072;-76
2022/08/20 00:30:06;;;;;;;18.15;8.25;;;;;;;18.67;100.00;100157.22;5034212;28;20033;-75
2022/08/20 00:32:31;;;;;;;15.95;8.02;;;;;;;18.63;100.00;100146.16;5033930;28;20439;-76
2022/08/20 00:34:57;;;;;;;15.93;8.35;;;;;;;18.60;100.00;100142.19;5033912;28;20048;-76
2022/08/20 00:37:22;;;;;;;;;;;;;;;18.55;100.00;100153.59;5016343;28;20468;-76
2022/08/20 00:39:47;;;;;;;15.30;7.45;;;;;;;18.59;100.00;100159.13;5033892;28;19908;-75
2022/08/20 00:42:13;;;;;;;;;;;;;;;18.56;100.00;100155.16;5034031;28;20033;-75
2022/08/20 00:44:45;;;;;;;17.75;7.22;;;;;;;18.76;100.00;100161.19;5033622;28;19974;-76
2022/08/20 00:47:11;;;;;;;15.93;7.85;;;;;;;18.86;100.00;100154.13;5033625;28;20457;-76
2022/08/20 00:49:36;;;;;;;18.65;8.80;;;;;;;18.75;100.00;100156.84;5033845;28;20084;-76
2022/08/20 00:52:13;;;;;;;19.20;7.57;;;;;;;18.77;100.00;100160.00;5033582;28;20042;-76
2022/08/20 00:54:52;;;;;;;17.20;8.23;;;;;;;18.79;100.00;100159.59;5033733;28;20034;-76
2022/08/20 00:57:29;;;;;;;21.15;9.25;;;;;;;18.74;100.00;100158.03;5015805;28;20037;-76
2022/08/20 00:59:57;;;;;;;20.48;8.85;;;;;;;18.77;100.00;100156.44;5032708;28;20498;-77
2022/08/20 01:02:26;;;;;;;20.42;8.75;;;;;;;18.74;100.00;100158.03;5015726;28;20040;-76
2022/08/20 01:04:55;;;;;;;21.50;9.80;;;;;;;18.86;100.00;100160.44;5033586;28;20118;-76
2022/08/20 01:07:31;;;;;;;19.88;8.95;;;;;;;18.72;100.00;100167.88;5015568;28;20125;-76
2022/08/20 01:09:57;;;;;;;23.13;9.67;;;;;;;18.67;100.00;100160.78;5033297;28;20025;-76
2022/08/20 01:12:24;;;;;;;30.00;13.20;;;;;;;18.57;100.00;100155.97;5033138;28;20651;-76
2022/08/20 01:14:50;;;;;;;21.35;9.52;;;;;;;18.60;100.00;100163.44;5015532;28;20029;-76
2022/08/20 01:17:21;;;;;;;19.40;8.80;;;;;;;18.59;100.00;100164.63;5033405;28;20029;-76
2022/08/20 01:20:09;;;;;;;21.45;8.85;;;;;;;18.65;100.00;100165.09;5033538;28;20053;-76
2022/08/20 01:23:31;;;;;;;20.58;9.02;;;;;;;18.66;100.00;100163.91;5032990;28;20029;-76
2022/08/20 01:26:02;;;;;;;17.35;7.88;;;;;;;18.67;100.00;100163.53;5032810;28;20029;-75
2022/08/20 01:28:49;;;;;;;16.70;8.15;;;;;;;18.62;100.00;100163.84;5032905;28;20032;-75
2022/08/20 01:31:21;;;;;;;20.70;8.88;;;;;;;18.62;100.00;100170.16;5033138;28;20064;-75
2022/08/20 01:33:48;;;;;;;19.77;8.57;;;;;;;18.58;100.00;100172.09;5033104;28;20029;-76
2022/08/20 01:36:16;;;;;;;21.88;8.45;;;;;;;18.52;100.00;100168.16;5033021;28;20356;-76
2022/08/20 01:38:43;;;;;;;18.85;8.88;;;;;;;18.54;100.00;100171.31;5033037;28;20034;-75
2022/08/20 01:41:08;;;;;;;19.15;8.23;;;;;;;18.53;100.00;100178.00;5032928;28;20057;-76
2022/08/20 01:43:34;;;;;;;15.23;8.13;;;;;;;18.55;100.00;100172.88;5032896;28;20086;-75
2022/08/20 01:46:00;;;;;;;;;;;;;;;18.55;100.00;100169.34;5032913;28;20336;-75
2022/08/20 01:48:25;;;;;;;20.80;8.35;;;;;;;18.47;100.00;100175.97;5032242;28;19917;-75
2022/08/20 01:51:12;;;;;;;;;;;;;;;18.47;100.00;100184.25;5032928;28;20029;-75
2022/08/20 01:53:41;;;;;;;16.65;6.90;;;;;;;18.51;100.00;100182.34;5032195;28;20288;-75
2022/08/20 01:56:10;;;;;;;19.73;8.57;;;;;;;18.49;100.00;100184.69;5032386;28;20095;-75
2022/08/20 01:58:39;;;;;;;19.45;8.38;;;;;;;18.50;100.00;100181.53;5032382;28;20037;-76
2022/08/20 02:01:05;;;;;;;18.58;8.68;;;;;;;18.50;100.00;100186.25;5032265;28;20365;-75
2022/08/20 02:03:30;;;;;;;18.48;8.68;;;;;;;18.46;100.00;100180.72;5032202;28;20047;-75
2022/08/20 02:05:59;;;;;;;16.40;7.03;;;;;;;18.41;100.00;100189.34;5014645;28;20045;-75
2022/08/20 02:08:24;;;;;;;16.30;7.53;;;;;;;18.42;100.00;100187.38;5032157;28;20462;-75
2022/08/20 02:10:49;;;;;;;15.95;7.18;;;;;;;18.42;100.00;100184.63;5031881;28;20108;-75
2022/08/20 02:13:15;;;;;;;16.52;6.55;;;;;;;18.41;100.00;100185.81;5031515;28;20029;-75
2022/08/20 02:15:41;;;;;;;15.63;7.32;;;;;;;18.40;100.00;100179.50;5032648;28;20117;-76
2022/08/20 02:18:09;;;;;;;;;;;;;;;18.34;99.65;100183.81;5032709;28;20033;-77
2022/08/20 02:20:35;;;;;;;11.98;5.32;;;;;;;18.29;100.00;100184.94;5032320;28;19995;-77
2022/08/20 02:23:00;;;;;;;16.20;6.47;;;;;;;18.26;99.32;100179.41;5032308;28;20072;-77
2022/08/20 02:25:29;;;;;;;14.88;4.88;;;;;;;18.25;97.14;100170.38;5032030;28;20030;-77
2022/08/20 02:27:56;;;;;;;11.77;4.63;;;;;;;18.27;98.63;100175.50;5031900;28;20116;-77
2022/08/20 02:30:28;;;;;;;9.98;4.82;;;;;;;18.28;98.81;100183.38;5014331;28;20434;-77
2022/08/20 02:32:57;;;;;;;10.25;5.07;;;;;;;18.28;98.72;100183.38;5031817;28;20378;-76
2022/08/20 02:35:23;;;;;;;10.25;4.80;;;;;;;18.30;99.20;100178.25;5031975;28;20029;-77
2022/08/20 02:37:49;;;;;;;11.18;5.18;;;;;;;18.32;99.34;100178.69;5032054;28;20052;-77
2022/08/20 02:40:17;;;;;;;12.27;5.57;;;;;;;18.31;99.29;100174.34;5032321;28;20048;-76
2022/08/20 02:42:43;;;;;;;10.10;5.03;;;;;;;18.40;99.71;100187.00;5031843;28;20033;-76
2022/08/20 02:45:15;;;;;;;15.13;5.65;;;;;;;18.45;99.79;100172.81;5031924;28;20376;-77
2022/08/20 02:47:43;;;;;;;10.75;5.35;;;;;;;18.54;99.46;100182.34;5031990;28;20030;-77
2022/08/20 02:50:13;;;;;;;17.50;7.53;;;;;;;18.45;100.00;100178.34;5032016;28;20052;-77
2022/08/20 02:52:39;;;;;;;14.15;7.50;;;;;;;18.44;100.00;100168.50;5032018;28;20076;-76
2022/08/20 02:55:05;;;;;;;13.30;6.65;;;;;;;18.36;100.00;100164.91;5031676;28;20116;-76
2022/08/20 02:57:32;;;;;;;13.95;6.18;;;;;;;18.38;100.00;100168.09;5031666;28;20025;-76
2022/08/20 02:59:57;;;;;;;15.23;7.18;;;;;;;18.41;100.00;100161.00;5031654;28;20380;-76
2022/08/20 03:02:23;;;;;;;11.55;5.80;;;;;;;18.50;100.00;100170.50;5031782;28;20029;-77
2022/08/20 03:04:48;;;;;;;12.60;6.40;;;;;;;18.75;99.51;100169.84;5031780;28;20029;-76
2022/08/20 03:07:13;;;;;;;12.20;6.28;;;;;;;18.61;99.18;100165.03;5013824;28;20064;-76
2022/08/20 03:09:40;;;;;;;13.25;6.07;;;;;;;18.74;99.47;100169.06;5031390;28;20123;-75
2022/08/20 03:12:06;;;;;;;10.43;5.57;;;;;;;18.73;98.79;100166.69;5031483;28;20439;-76
2022/08/20 03:14:32;;;;;;;10.35;5.45;;;;;;;19.02;96.41;100162.06;5031441;28;20472;-75
2022/08/20 03:16:57;;;;;;;12.35;5.30;;;;;;;18.80;96.58;100163.94;5031794;28;20109;-75
2022/08/20 03:19:22;;;;;;;;;;;;;;;18.89;96.94;100167.94;5032375;28;20055;-75
2022/08/20 03:21:48;;;;;;;11.30;4.80;;;;;;;18.76;96.95;100161.19;5013926;28;19909;-75
2022/08/20 03:24:14;;;;;;;10.02;5.18;;;;;;;18.72;97.17;100165.91;5035026;28;20360;-75
2022/08/20 03:26:39;;;;;;;10.40;5.38;;;;;;;18.83;97.61;100169.50;5035145;28;20033;-76
2022/08/20 03:29:05;;;;;;;10.30;5.07;;;;;;;18.75;97.93;100173.38;5035438;28;20033;-77
2022/08/20 03:31:30;;;;;;;;;;;;;;;18.57;98.03;100175.25;5035606;28;20040;-76
2022/08/20 03:33:55;;;;;;;10.30;5.28;;;;;;;18.84;97.47;100179.34;5035063;28;19996;-76
2022/08/20 03:36:22;;;;;;;11.05;5.32;;;;;;;18.97;96.48;100182.53;5035167;28;20029;-76
2022/08/20 03:38:48;;;;;;;11.45;5.13;;;;;;;19.03;96.26;100175.47;5035279;28;20030;-76
2022/08/20 03:41:13;;;;;;;10.38;5.15;;;;;;;18.86;97.31;100168.72;5035252;28;20083;-76
2022/08/20 03:43:40;;;;;;;9.95;4.75;;;;;;;18.72;98.05;100170.63;5034986;28;20096;-76
2022/08/20 03:46:06;;;;;;;9.90;5.13;;;;;;;19.03;96.55;100156.16;5017324;28;20088;-76
2022/08/20 03:48:31;;;;;;;10.48;5.07;;;;;;;18.81;97.79;100163.59;5034708;28;20432;-75
2022/08/20 03:50:59;;;;;;;;;;;;;;;18.63;98.33;100157.19;5035167;28;20108;-76
2022/08/20 03:53:25;;;;;;;15.35;5.20;;;;;;;18.59;99.15;100159.13;5017293;28;19913;-75
2022/08/20 03:55:53;;;;;;;11.27;6.00;;;;;;;18.58;98.96;100150.06;5035298;28;20025;-76
2022/08/20 03:58:18;;;;;;;12.40;6.20;;;;;;;18.50;99.54;100148.47;5034577;28;20033;-75
2022/08/20 04:00:47;;;;;;;12.70;6.35;;;;;;;18.39;99.90;100149.56;5034486;28;20388;-75
2022/08/20 04:03:13;;;;;;;15.30;5.57;;;;;;;18.42;99.97;100135.00;5034532;28;20037;-75
2022/08/20 04:05:40;;;;;;;12.20;5.57;;;;;;;18.40;99.91;100132.66;5034643;28;20048;-75
2022/08/20 04:08:15;;;;;;;15.27;6.20;;;;;;;18.42;99.75;100148.78;5034812;28;20050;-76
2022/08/20 04:10:41;;;;;;;15.17;6.70;;;;;;;18.61;97.98;100148.47;5034773;28;20038;-75
2022/08/20 04:13:08;;;;;;;13.63;4.57;;;;;;;18.49;98.41;100152.38;5034580;28;20053;-76
2022/08/20 04:15:35;;;;;;;12.98;5.28;;;;;;;18.44;98.74;100157.47;5034661;28;20080;-75
2022/08/20 04:18:05;;;;;;;10.18;4.70;;;;;;;18.45;98.75;100161.81;5016672;28;20122;-75
2022/08/20 04:20:30;;;;;;;11.13;5.65;;;;;;;18.65;98.36;100167.84;5034539;28;20068;-76
2022/08/20 04:22:56;;;;;;;10.73;4.97;;;;;;;18.59;98.13;100157.16;5034450;28;20068;-75
2022/08/20 04:25:21;;;;;;;;;;;;;;;18.50;98.88;100165.00;5034808;28;20034;-76
2022/08/20 04:27:49;;;;;;;11.90;4.75;;;;;;;18.43;99.22;100159.44;5034430;28;19935;-79
2022/08/20 04:30:17;;;;;;;11.98;5.50;;;;;;;18.45;99.41;100161.81;5034187;28;20409;-77
2022/08/20 04:32:43;;;;;;;10.50;5.97;;;;;;;18.78;98.15;100175.38;5034326;28;20025;-76
2022/08/20 04:35:14;;;;;;;12.57;5.72;;;;;;;18.80;97.22;100184.03;5032905;28;20056;-77
2022/08/20 04:37:41;;;;;;;13.80;6.03;;;;;;;18.54;99.11;100184.31;5033972;28;20034;-77
2022/08/20 04:42:54;;;;;;;12.48;5.93;;;;;;;18.30;99.78;100189.28;5034269;28;20083;-78
2022/08/20 04:45:20;;;;;;;12.85;5.78;;;;;;;18.30;100.00;100188.50;5033808;28;20037;-79
2022/08/20 04:47:46;;;;;;;10.43;5.07;;;;;;;18.27;100.00;100189.28;5034158;28;20040;-77
2022/08/20 04:50:12;;;;;;;12.13;5.53;;;;;;;18.58;97.43;100188.66;5033962;28;20059;-78
2022/08/20 04:52:39;;;;;;;10.00;5.30;;;;;;;18.51;98.11;100193.34;5033662;28;20461;-78
2022/08/20 04:55:05;;;;;;;11.05;5.03;;;;;;;18.44;98.22;100198.81;5034067;28;20030;-78
2022/08/20 04:57:32;;;;;;;13.35;6.30;;;;;;;18.42;98.93;100196.44;5033904;28;20075;-78
2022/08/20 04:59:59;;;;;;;13.07;6.10;;;;;;;18.67;98.63;100204.91;5033507;28;20045;-78
2022/08/20 05:02:24;;;;;;;12.05;6.15;;;;;;;18.81;97.53;100213.22;5033542;28;20045;-76
2022/08/20 05:04:49;;;;;;;12.60;6.10;;;;;;;18.83;98.54;100210.09;5033216;28;20025;-78
2022/08/20 05:07:15;;;;;;;;;;;;;;;18.73;98.55;100219.88;5033753;28;20029;-76
2022/08/20 05:09:42;;;;;;;15.07;6.60;;;;;;;18.64;99.50;100216.66;5033589;28;20390;-76
2022/08/20 05:12:08;;;;;;;14.30;7.47;;;;;;;18.73;99.17;100217.13;5033285;28;20427;-76
2022/08/20 05:14:34;;;;;;;17.67;7.30;;;;;;;18.59;100.00;100217.81;5033634;28;20516;-76
2022/08/20 05:17:05;;;;;;;13.68;7.32;;;;;;;18.50;100.00;100219.34;5033322;28;20145;-76
2022/08/20 05:19:33;;;;;;;16.10;6.82;;;;;;;18.64;100.00;100216.66;5033642;28;20506;-77
2022/08/20 05:21:59;;;;;;;15.18;7.13;;;;;;;18.71;100.00;100215.94;5033317;28;20033;-78
2022/08/20 05:24:25;;;;;;;12.57;5.90;;;;;;;18.64;100.00;100208.41;5015628;28;20369;-77
2022/08/20 05:26:50;;;;;;;;;;;;;;;18.57;100.00;100222.13;5033570;28;20154;-78
2022/08/20 05:29:16;;;;;;;11.55;5.57;;;;;;;18.56;100.00;100224.09;5033266;28;20283;-79
2022/08/20 05:31:41;;;;;;;;;;;;;;;18.49;100.00;100226.03;5033626;28;20029;-79
2022/08/20 05:34:11;;;;;;;13.73;5.03;;;;;;;18.32;99.49;100216.50;5033388;28;19992;-79
2022/08/20 05:36:42;;;;;;;11.35;4.38;;;;;;;18.29;100.00;100218.03;5033743;28;20483;-80
2022/08/20 05:39:08;;;;;;;9.35;4.45;;;;;;;18.25;99.81;100221.94;5033216;28;20037;-77
2022/08/20 05:41:35;;;;;;;10.00;4.80;;;;;;;18.42;100.00;100224.00;5015302;28;20025;-78
2022/08/20 05:44:00;;;;;;;9.80;5.22;;;;;;;18.29;100.00;100220.78;5032905;28;20126;-78
2022/08/20 05:46:26;;;;;;;12.15;5.28;;;;;;;18.27;100.00;100217.63;5032602;28;20029;-79
2022/08/20 05:48:51;;;;;;;13.00;6.20;;;;;;;18.07;100.00;100216.31;5032675;28;20050;-79
2022/08/20 05:51:16;;;;;;;;;;;;;;;17.87;100.00;100220.50;5033223;28;20077;-78
2022/08/20 05:53:42;;;;;;;11.00;4.97;;;;;;;17.73;100.00;100226.66;5033339;28;19913;-78
2022/08/20 05:56:10;;;;;;;10.50;5.05;;;;;;;17.73;100.00;100221.94;5032927;28;20419;-78
2022/08/20 05:58:36;;;;;;;8.95;4.68;;;;;;;17.91;100.00;100221.31;5033026;28;20052;-79
2022/08/20 06:01:02;;;;;;;11.38;5.38;;;;;;;17.83;100.00;100214.16;5015059;28;20384;-79
2022/08/20 06:06:12;;;;;;;9.02;4.78;;;;;;;17.97;100.00;100223.34;5032535;28;20040;-78
2022/08/20 06:08:37;;;;;;;9.88;4.30;;;;;;;17.69;100.00;100226.63;5032696;28;20037;-79
2022/08/20 06:11:03;;;;;;;;;;;;;;;17.57;100.00;100224.13;5015327;28;20061;-77
2022/08/20 06:13:28;;;;;;;10.35;4.80;;;;;;;17.79;100.00;100230.63;5032584;28;19975;-79
2022/08/20 06:15:56;;;;;;;;;;;;;;;17.66;100.00;100232.88;5033145;28;20065;-79
2022/08/20 06:18:22;;;;;;;9.52;3.92;;;;;;;17.79;100.00;100229.84;5014700;28;19909;-78
2022/08/20 06:20:49;;;;;;;8.55;4.40;;;;;;;18.02;99.69;100233.19;5032247;28;20087;-79
2022/08/20 06:23:14;;;;;;;8.80;4.80;;;;;;;18.00;100.00;100228.09;5032269;28;20030;-79
2022/08/20 06:25:40;;;;;;;8.18;3.95;;;;;;;18.26;99.19;100227.06;5032039;28;20368;-82
2022/08/20 06:28:05;;;;;;;;;;;;;;;18.22;98.63;100220.75;5014914;28;20068;-79
2022/08/20 06:30:31;;;;;;;12.30;5.18;;;;;;;18.06;100.00;100227.72;5032241;28;20008;-79
2022/08/20 06:33:03;;;;;;;;;;;;;;;17.93;100.00;100228.00;5032654;28;20037;-77
2022/08/20 06:35:28;;;;;;;10.93;5.18;;;;;;;17.78;100.00;100223.56;5032517;28;19962;-79
2022/08/20 06:37:56;;;;;;;13.35;5.53;;;;;;;17.68;100.00;100227.03;5032200;28;20025;-77
2022/08/20 06:40:24;;;;;;;9.07;4.75;;;;;;;17.95;100.00;100228.41;5031609;28;20032;-78
2022/08/20 06:42:51;;;;;;;9.82;4.63;;;;;;;17.87;100.00;100226.78;5032085;28;20057;-78
2022/08/20 06:45:20;;;;;;;12.30;5.28;;;;;;;18.06;100.00;100225.75;5032139;28;20026;-79
2022/08/20 06:47:46;;;;;;;11.90;5.47;;;;;;;17.96;100.00;100235.50;5032258;28;20026;-76
2022/08/20 06:50:37;;;;;;;14.13;5.03;;;;;;;18.13;100.00;100233.25;5032927;28;20069;-77
2022/08/20 06:53:04;;;;;;;11.40;5.72;;;;;;;18.11;100.00;100236.41;5031724;28;20033;-77
2022/08/20 06:55:29;;;;;;;13.82;6.45;;;;;;;18.15;100.00;100237.25;5031992;28;20053;-76
2022/08/20 06:58:01;;;;;;;14.13;6.28;;;;;;;18.13;100.00;100242.31;5032492;28;20040;-76
2022/08/20 07:00:27;;;;;;;14.95;6.80;;;;;;;17.98;100.00;100243.41;5035625;28;20080;-76
2022/08/20 07:02:53;;;;;;;13.70;6.85;;;;;;;18.03;100.00;100243.06;5035951;28;20470;-76
2022/08/20 07:05:18;;;;;;;16.50;7.80;;;;;;;18.14;100.00;100241.19;5018016;28;20025;-76
2022/08/20 07:07:45;;;;;;;;;;;;;;;18.07;100.00;100241.09;5036471;28;20056;-77
2022/08/20 07:10:12;;;;;;;17.13;7.13;;;;;;;18.17;100.00;100245.91;5035840;28;19956;-77
2022/08/20 07:12:38;;;;;;;15.88;7.15;;;;;;;18.15;100.00;100241.97;5035478;28;20022;-77
2022/08/20 07:15:07;;;;;;;17.13;8.13;;;;;;;18.18;100.00;100252.22;5036026;28;20113;-76
2022/08/20 07:17:33;;;;;;;14.85;7.55;;;;;;;18.13;100.00;100253.34;5035273;28;20505;-76
2022/08/20 07:20:07;;;;;;;15.82;7.18;;;;;;;18.06;100.00;100255.28;5017751;28;20048;-76
2022/08/20 07:22:35;;;;;;;15.95;7.32;;;;;;;18.26;100.00;100254.63;5035657;28;20357;-77
2022/08/20 07:25:05;;;;;;;15.68;7.57;;;;;;;18.24;100.00;100248.72;5035419;28;20506;-77
2022/08/20 07:27:30;;;;;;;15.20;7.47;;;;;;;18.47;100.00;100248.47;5035546;28;20037;-77
2022/08/20 07:32:41;;;;;;;16.42;8.25;;;;;;;18.82;100.00;100252.66;5035250;28;20036;-77
2022/08/20 07:35:09;;;;;;;18.77;8.30;;;;;;;18.73;100.00;100244.72;5035165;28;20036;-75
2022/08/20 07:37:39;;;;;;;15.30;7.47;;;;;;;18.97;100.00;100253.47;5035223;28;20033;-76
2022/08/20 07:40:06;;;;;;;20.08;9.43;;;;;;;18.76;100.00;100252.19;5035384;28;20110;-75
2022/08/20 07:42:31;;;;;;;19.15;9.70;;;;;;;18.78;100.00;100251.81;5017401;28;20088;-75
2022/08/20 07:44:57;;;;;;;23.75;10.57;;;;;;;18.60;100.00;100259.97;5035014;28;20042;-75
2022/08/20 07:47:22;;;;;;;20.73;9.85;;;;;;;18.82;100.00;100261.72;5034715;28;20455;-75
2022/08/20 07:49:47;;;;;;;;;;;;;;;18.76;100.00;100257.72;5035711;28;20041;-75
2022/08/20 07:52:14;;;;;;;24.02;10.60;;;;;;;18.67;100.00;100256.50;5017158;28;19970;-76
2022/08/20 07:54:40;;;;;;;20.83;9.85;;;;;;;18.89;100.00;100260.94;5017232;28;20329;-76
2022/08/20 07:57:05;;;;;;;23.55;11.70;;;;;;;18.82;100.00;100274.72;5017239;28;20037;-75
2022/08/20 07:59:31;;;;;;;;;;;;;;;18.76;99.80;100277.03;5035407;28;20087;-76
2022/08/20 08:01:57;;;;;;;25.75;10.93;;;;;;;18.77;100.00;100289.63;5034662;28;19971;-75
2022/08/20 08:04:23;;;;;;;27.10;11.70;;;;;;;18.93;99.17;100289.31;5034389;28;20021;-75
2022/08/20 08:06:50;;;;;;;21.25;11.02;;;;;;;19.09;98.42;100283.50;5034706;28;20405;-75
2022/08/20 08:09:15;;;;;;;23.90;11.50;;;;;;;19.13;99.01;100276.00;5034394;28;20116;-75
2022/08/20 08:11:49;;;;;;;22.60;10.93;;;;;;;19.10;98.90;100271.28;5034511;28;20485;-76
2022/08/20 08:14:22;;;;;;;30.02;13.32;;;;;;;19.12;99.24;100279.94;5016514;28;20399;-75
2022/08/20 08:16:48;;;;;;;26.10;11.57;;;;;;;19.05;99.58;100277.16;5034296;28;20072;-75
2022/08/20 08:19:15;;;;;;;23.77;11.48;;;;;;;19.11;99.56;100276.41;5034575;28;20110;-76
2022/08/20 08:21:42;;;;;;;25.60;11.35;;;;;;;19.27;97.84;100287.09;5034561;28;20038;-75
2022/08/20 08:24:07;;;;;;;22.02;11.88;;;;;;;19.32;97.79;100280.44;5016799;28;20472;-76
2022/08/20 08:26:33;;;;;;;20.92;10.05;;;;;;;19.37;97.31;100280.84;5034093;28;20067;-75
2022/08/20 08:28:58;;;;;;;;;;;;;;;19.48;95.02;100278.91;5034555;28;20034;-76
2022/08/20 08:31:26;;;;;;;14.98;7.93;;;;;;;19.39;95.73;100283.22;5034139;28;19909;-76
2022/08/20 08:33:51;;;;;;;14.23;8.20;;;;;;;19.52;95.19;100290.75;5034421;28;20029;-76
2022/08/20 08:36:17;;;;;;;14.95;7.75;;;;;;;19.59;94.17;100283.69;5016589;28;20080;-75
2022/08/20 08:38:44;;;;;;;18.88;9.82;;;;;;;19.36;95.75;100281.22;5034320;28;20029;-75
2022/08/20 08:41:19;;;;;;;16.88;9.05;;;;;;;19.51;96.03;100286.41;5034505;28;20483;-75
2022/08/20 08:43:46;;;;;;;17.35;9.70;;;;;;;19.57;97.09;100286.03;5016263;28;20025;-76
2022/08/20 08:46:17;;;;;;;21.80;10.82;;;;;;;19.70;96.21;100277.00;5033681;28;20030;-75
2022/08/20 08:48:46;;;;;;;23.05;11.98;;;;;;;19.52;96.30;100281.66;5033554;28;20611;-76
2022/08/20 08:51:16;;;;;;;22.77;10.98;;;;;;;19.46;95.37;100297.81;5034057;28;20472;-76
2022/08/20 08:53:46;;;;;;;21.38;10.90;;;;;;;19.37;95.70;100293.84;5033944;28;20033;-76
2022/08/20 08:56:13;;;;;;;23.15;12.30;;;;;;;19.39;95.72;100297.81;5034033;28;20033;-77
2022/08/20 08:58:39;;;;;;;22.13;11.05;;;;;;;19.17;95.95;100301.69;5033708;28;20030;-77
2022/08/20 09:01:19;;;;;;;21.35;10.98;;;;;;;19.07;95.38;100294.13;5015815;28;20028;-74
2022/08/20 09:03:48;;;;;;;23.25;11.60;;;;;;;18.94;95.96;100302.75;5033839;28;20034;-76
2022/08/20 09:06:19;;;;;;;23.27;11.23;;;;;;;19.02;95.46;100305.53;5033906;28;20026;-78
2022/08/20 09:08:52;;;;;;;22.88;10.63;;;;;;;19.08;94.77;100310.28;5033269;28;20022;-77
2022/08/20 09:11:21;;;;;;;22.50;11.20;;;;;;;19.09;95.23;100309.13;5033396;28;20053;-78
2022/08/20 09:13:47;;;;;;;24.48;11.85;;;;;;;19.25;94.26;100319.84;5033291;28;20055;-78
2022/08/20 09:16:14;;;;;;;23.55;12.07;;;;;;;19.20;94.48;100317.47;5033115;28;20417;-78
2022/08/20 09:18:39;;;;;;;28.35;14.23;;;;;;;19.06;94.27;100309.09;5033455;28;20041;-78
2022/08/20 09:21:05;;;;;;;27.77;13.05;;;;;;;19.03;94.98;100315.41;5032890;28;20445;-77
2022/08/20 09:23:31;;;;;;;31.98;14.70;;;;;;;19.18;94.05;100322.56;5015441;28;20328;-77
2022/08/20 09:25:57;;;;;;;27.85;13.00;;;;;;;19.37;93.25;100321.47;5015353;28;20021;-77
2022/08/20 09:28:22;;;;;;;24.52;13.30;;;;;;;19.45;93.85;100312.81;5033214;28;20029;-77
2022/08/20 09:30:48;;;;;;;27.60;13.77;;;;;;;19.75;92.75;100320.00;5032994;28;20460;-78
2022/08/20 09:33:13;;;;;;;22.38;12.13;;;;;;;19.81;91.07;100316.47;5032950;28;20067;-79
2022/08/20 09:35:43;;;;;;;23.40;11.88;;;;;;;20.05;89.81;100316.91;5015396;28;20040;-78
2022/08/20 09:38:09;;;;;;;21.42;11.02;;;;;;;20.03;89.81;100327.56;5032975;28;20025;-78
2022/08/20 09:40:34;;;;;;;24.23;11.93;;;;;;;20.09;88.15;100325.97;5032992;28;20036;-77
2022/08/20 09:42:59;;;;;;;22.33;11.18;;;;;;;19.95;87.40;100324.00;5033020;28;20075;-78
2022/08/20 09:45:25;;;;;;;23.65;11.27;;;;;;;19.88;86.69;100324.00;5033085;28;20040;-77
2022/08/20 09:47:51;;;;;;;21.90;11.02;;;;;;;20.17;86.57;100326.78;5032808;28;20063;-77
2022/08/20 09:50:16;;;;;;;21.30;10.77;;;;;;;20.35;86.03;100330.34;5033041;28;20068;-78
2022/08/20 09:52:45;;;;;;;23.38;12.02;;;;;;;20.22;85.53;100329.16;5032538;28;20060;-77
2022/08/20 09:55:19;;;;;;;23.88;11.18;;;;;;;20.16;85.27;100328.75;5032989;28;20049;-79
2022/08/20 09:57:48;;;;;;;21.77;10.85;;;;;;;20.07;85.59;100329.13;5032720;28;20044;-78
2022/08/20 10:00:14;;;;;;;18.88;10.48;;;;;;;20.01;85.31;100327.97;5014702;28;20595;-77
2022/08/20 10:02:40;;;;;;;19.92;10.77;;;;;;;19.97;85.73;100321.63;5032496;28;20104;-77
2022/08/20 10:05:07;;;;;;;18.25;9.40;;;;;;;20.21;85.09;100327.56;5032306;28;20405;-78
2022/08/20 10:07:33;;;;;;;21.00;10.63;;;;;;;20.43;84.67;100338.25;5032304;28;20506;-78
2022/08/20 10:10:04;;;;;;;19.80;9.88;;;;;;;20.52;83.75;100328.78;5032710;28;20484;-77
2022/08/20 10:12:29;;;;;;;19.77;9.90;;;;;;;20.72;83.61;100327.16;5032943;28;20173;-77
2022/08/20 10:14:55;;;;;;;18.52;9.45;;;;;;;20.91;81.55;100339.78;5014420;28;20380;-77
2022/08/20 10:17:20;;;;;;;18.73;9.25;;;;;;;20.88;79.92;100335.03;5033226;28;20479;-89
2022/08/20 10:19:46;;;;;;;17.88;8.95;;;;;;;20.94;79.75;100328.69;5034130;28;20104;-79
2022/08/20 10:22:11;;;;;;;17.67;9.35;;;;;;;21.00;79.61;100331.84;5032693;28;20032;-83
2022/08/20 10:24:37;;;;;;;18.10;8.35;;;;;;;20.79;79.07;100326.34;5015149;28;20029;-80
2022/08/20 10:27:02;;;;;;;16.50;7.75;;;;;;;20.81;79.37;100329.50;5032380;28;20033;-81
2022/08/20 10:29:28;;;;;;;14.40;7.05;;;;;;;21.06;79.31;100326.69;5032392;28;20384;-80
2022/08/20 10:31:55;;;;;;;15.63;8.18;;;;;;;21.22;78.88;100338.09;5031966;28;20128;-87
2022/08/20 10:34:22;;;;;;;15.25;7.50;;;;;;;21.35;77.10;100330.97;5079734;23;20141;-88
2022/08/20 10:36:48;;;;;;;15.98;8.10;;;;;;;21.34;77.30;100334.91;5294899;23;20080;-90
2022/08/20 10:39:14;;;;;;;14.75;7.53;;;;;;;21.32;76.91;100332.53;5011763;28;20026;-87
2022/08/20 10:41:39;;;;;;;16.30;8.07;;;;;;;20.98;77.32;100329.44;5269588;23;20081;-82
2022/08/20 10:44:05;;;;;;;15.57;7.43;;;;;;;20.86;77.91;100331.88;5092634;23;20028;-83
2022/08/20 10:46:30;;;;;;;15.82;7.13;;;;;;;21.07;76.47;100331.81;5046995;28;20638;-79
2022/08/20 10:48:55;;;;;;;13.93;6.00;;;;;;;21.15;75.02;100327.81;5032285;28;20116;-81
2022/08/20 10:51:21;;;;;;;13.68;7.32;;;;;;;21.20;75.80;100332.16;5032470;28;20044;-81
2022/08/20 10:53:46;;;;;;;11.40;6.75;;;;;;;21.08;75.68;100333.38;5032649;28;20033;-81
2022/08/20 10:56:12;;;;;;;13.30;6.97;;;;;;;20.96;75.86;100331.03;5035101;28;20107;-88
2022/08/20 10:58:37;;;;;;;14.73;7.03;;;;;;;20.92;75.94;100325.53;5035885;28;20025;-89
2022/08/20 11:01:02;;;;;;;12.02;6.88;;;;;;;21.02;77.12;100335.00;5034906;28;20031;-88
2022/08/20 11:03:28;;;;;;;13.80;7.25;;;;;;;21.12;77.06;100331.41;5035017;28;20460;-87
2022/08/20 11:05:53;;;;;;;15.25;8.07;;;;;;;21.12;76.71;100336.94;5035621;28;20034;-89
2022/08/20 11:08:18;;;;;;;11.73;6.53;;;;;;;21.21;76.12;100333.75;5040002;28;20033;-90
2022/08/20 11:10:44;;;;;;;15.73;7.57;;;;;;;21.32;75.83;100332.53;5036527;28;20056;-88
2022/08/20 11:13:11;;;;;;;16.05;8.25;;;;;;;21.26;76.12;100334.13;5035832;28;20057;-87
2022/08/20 11:15:39;;;;;;;16.02;7.45;;;;;;;21.12;75.78;100333.38;5040931;28;20030;-86
2022/08/20 11:18:05;;;;;;;13.55;7.95;;;;;;;21.26;75.57;100345.22;5040850;28;20029;-88
2022/08/20 11:20:30;;;;;;;11.75;7.28;;;;;;;21.30;75.09;100334.91;5024025;28;20036;-90
2022/08/20 11:22:56;;;;;;;15.38;7.07;;;;;;;21.45;74.08;100340.38;5024674;28;20056;-90
2022/08/20 11:25:22;;;;;;;12.52;6.50;;;;;;;21.30;74.55;100340.44;5039371;28;20112;-87
2022/08/20 11:27:49;;;;;;;12.63;6.65;;;;;;;21.52;73.76;100334.84;5022810;28;20041;-92